createdAt,value
2019-03-29T00:02:14.053Z,6.78
2019-03-29T00:04:42.447Z,7.15
2019-03-29T00:07:10.828Z,6.83
2019-03-29T00:09:39.228Z,7.55
2019-03-29T00:12:07.604Z,7.17
2019-03-29T00:14:35.997Z,7.17
2019-03-29T00:17:04.439Z,6.87
2019-03-29T00:19:32.839Z,6.20
2019-03-29T00:22:01.224Z,6.97
2019-03-29T00:24:29.613Z,5.92
2019-03-29T00:26:58.000Z,5.55
2019-03-29T00:29:26.388Z,5.40
2019-03-29T00:31:54.773Z,5.65
2019-03-29T00:34:23.164Z,5.17
2019-03-29T00:36:52.043Z,5.17
2019-03-29T00:39:20.718Z,4.50
2019-03-29T00:41:49.097Z,5.08
2019-03-29T00:44:17.484Z,5.00
2019-03-29T00:46:45.865Z,4.25
2019-03-29T00:49:14.310Z,5.45
2019-03-29T00:51:43.328Z,4.40
2019-03-29T00:54:11.720Z,4.28
2019-03-29T00:56:40.103Z,5.08
2019-03-29T00:59:08.493Z,4.97
2019-03-29T01:01:36.875Z,4.53
2019-03-29T01:04:05.273Z,5.03
2019-03-29T01:06:33.690Z,4.50
2019-03-29T01:09:02.085Z,4.45
2019-03-29T01:11:30.467Z,4.78
2019-03-29T01:13:58.855Z,4.20
2019-03-29T01:16:27.831Z,4.85
2019-03-29T01:18:56.204Z,4.90
2019-03-29T01:21:24.592Z,4.62
2019-03-29T01:23:52.968Z,5.40
2019-03-29T01:26:21.378Z,4.30
2019-03-29T01:28:49.748Z,4.70
2019-03-29T01:31:18.136Z,4.50
2019-03-29T01:33:46.523Z,4.58
2019-03-29T01:36:14.927Z,4.30
2019-03-29T01:38:43.290Z,3.83
2019-03-29T01:41:11.772Z,4.17
2019-03-29T01:43:40.145Z,6.25
2019-03-29T01:46:08.538Z,4.42
2019-03-29T01:48:36.911Z,5.62
2019-03-29T01:51:05.299Z,5.12
2019-03-29T01:53:33.672Z,5.80
2019-03-29T01:56:02.068Z,5.90
2019-03-29T01:58:30.449Z,5.33
2019-03-29T02:00:59.115Z,5.10
2019-03-29T02:03:27.489Z,4.78
2019-03-29T02:05:55.877Z,4.53
2019-03-29T02:08:35.285Z,6.12
2019-03-29T02:10:54.376Z,4.60
2019-03-29T02:13:22.752Z,5.80
2019-03-29T02:15:51.141Z,5.50
2019-03-29T02:18:19.527Z,5.40
2019-03-29T02:20:47.917Z,6.15
2019-03-29T02:23:16.292Z,5.78
2019-03-29T02:25:44.684Z,6.20
2019-03-29T02:28:13.140Z,6.30
2019-03-29T02:30:41.537Z,6.72
2019-03-29T02:33:09.921Z,6.00
2019-03-29T02:35:38.953Z,5.05
2019-03-29T02:38:07.471Z,5.40
2019-03-29T02:40:35.860Z,5.80
2019-03-29T02:43:04.253Z,6.05
2019-03-29T02:45:32.631Z,6.12
2019-03-29T02:48:01.014Z,5.83
2019-03-29T02:50:29.401Z,5.53
2019-03-29T02:52:57.787Z,5.40
2019-03-29T02:55:26.169Z,5.87
2019-03-29T02:57:54.551Z,5.37
2019-03-29T03:00:22.943Z,6.50
2019-03-29T03:02:51.312Z,5.45
2019-03-29T03:05:19.709Z,5.90
2019-03-29T03:07:48.084Z,5.03
2019-03-29T03:10:17.612Z,4.83
2019-03-29T03:12:45.992Z,5.72
2019-03-29T03:15:14.617Z,5.70
2019-03-29T03:17:43.019Z,5.80
2019-03-29T03:20:15.468Z,5.47
2019-03-29T03:22:42.755Z,6.10
2019-03-29T03:25:11.404Z,6.05
2019-03-29T03:27:40.112Z,5.12
2019-03-29T03:30:11.559Z,5.30
2019-03-29T03:32:40.410Z,5.40
2019-03-29T03:35:09.863Z,6.58
2019-03-29T03:37:38.316Z,6.47
2019-03-29T03:40:07.433Z,5.75
2019-03-29T03:42:35.819Z,7.10
2019-03-29T03:45:06.565Z,6.97
2019-03-29T03:47:34.926Z,6.83
2019-03-29T03:50:03.596Z,6.03
2019-03-29T03:52:31.974Z,7.62
2019-03-29T03:55:00.489Z,6.03
2019-03-29T03:57:29.426Z,8.25
2019-03-29T03:59:58.081Z,6.78
2019-03-29T04:02:26.467Z,9.08
2019-03-29T04:04:54.857Z,7.87
2019-03-29T04:07:23.228Z,7.80
2019-03-29T04:09:51.616Z,8.35
2019-03-29T04:12:20.010Z,8.80
2019-03-29T04:14:48.650Z,8.93
2019-03-29T04:17:17.034Z,6.90
2019-03-29T04:19:45.492Z,9.40
2019-03-29T04:22:13.881Z,8.70
2019-03-29T04:24:42.265Z,9.53
2019-03-29T04:27:10.660Z,11.03
2019-03-29T04:29:39.050Z,9.13
2019-03-29T04:32:07.441Z,10.85
2019-03-29T04:34:35.824Z,11.18
2019-03-29T04:37:04.219Z,12.40
2019-03-29T04:39:32.685Z,11.35
2019-03-29T04:42:01.086Z,9.35
2019-03-29T04:44:29.469Z,10.45
2019-03-29T04:46:58.104Z,9.93
2019-03-29T04:49:26.494Z,10.98
2019-03-29T04:51:54.883Z,10.08
2019-03-29T04:54:23.268Z,11.00
2019-03-29T04:56:51.661Z,8.48
2019-03-29T04:59:20.052Z,9.33
2019-03-29T05:01:48.453Z,12.23
2019-03-29T05:04:16.824Z,7.45
2019-03-29T05:06:45.221Z,8.53
2019-03-29T05:09:13.605Z,13.25
2019-03-29T05:11:42.007Z,12.58
2019-03-29T05:14:10.397Z,13.25
2019-03-29T05:16:38.780Z,14.60
2019-03-29T05:19:07.163Z,11.25
2019-03-29T05:21:35.560Z,14.38
2019-03-29T05:24:03.948Z,12.45
2019-03-29T05:26:32.335Z,13.45
2019-03-29T05:29:00.719Z,13.70
2019-03-29T05:31:29.365Z,14.03
2019-03-29T05:33:57.740Z,13.28
2019-03-29T05:36:26.150Z,12.63
2019-03-29T05:38:54.812Z,12.88
2019-03-29T05:41:23.200Z,12.20
2019-03-29T05:43:51.586Z,13.65
2019-03-29T05:46:20.359Z,14.07
2019-03-29T05:48:48.756Z,12.00
2019-03-29T05:51:17.145Z,10.68
2019-03-29T05:53:45.529Z,10.80
2019-03-29T05:56:13.925Z,8.55
2019-03-29T05:58:42.309Z,12.05
2019-03-29T06:01:10.708Z,12.58
2019-03-29T06:03:39.091Z,12.23
2019-03-29T06:06:07.481Z,11.48
2019-03-29T06:08:35.874Z,12.00
2019-03-29T06:11:04.276Z,13.93
2019-03-29T06:13:32.669Z,12.07
2019-03-29T06:16:01.059Z,13.13
2019-03-29T06:18:29.436Z,13.05
2019-03-29T06:20:57.842Z,11.90
2019-03-29T06:23:26.227Z,10.90
2019-03-29T06:25:54.636Z,12.63
2019-03-29T06:28:23.010Z,9.88
2019-03-29T06:30:51.405Z,12.15
2019-03-29T06:33:19.788Z,11.28
2019-03-29T06:35:50.328Z,12.78
2019-03-29T06:38:20.365Z,11.75
2019-03-29T06:41:01.771Z,11.28
2019-03-29T06:43:18.891Z,11.85
2019-03-29T06:45:48.389Z,11.10
2019-03-29T06:48:17.432Z,10.77
2019-03-29T06:50:45.847Z,11.38
2019-03-29T06:53:14.288Z,10.30
2019-03-29T06:55:42.671Z,11.50
2019-03-29T06:58:12.614Z,11.22
2019-03-29T07:00:41.003Z,10.88
2019-03-29T07:03:09.419Z,11.10
2019-03-29T07:05:37.796Z,10.95
2019-03-29T07:08:06.531Z,10.10
2019-03-29T07:10:34.924Z,10.82
2019-03-29T07:13:03.339Z,10.88
2019-03-29T07:15:31.985Z,10.25
2019-03-29T07:18:00.670Z,11.55
2019-03-29T07:20:29.077Z,11.20
2019-03-29T07:22:57.475Z,11.28
2019-03-29T07:25:26.329Z,10.72
2019-03-29T07:27:54.728Z,10.50
2019-03-29T07:30:24.288Z,11.73
2019-03-29T07:32:52.690Z,12.23
2019-03-29T07:35:21.095Z,9.15
2019-03-29T07:37:49.481Z,11.22
2019-03-29T07:40:17.870Z,10.68
2019-03-29T07:42:46.531Z,10.55
2019-03-29T07:45:15.208Z,11.30
2019-03-29T07:47:43.625Z,10.82
2019-03-29T07:50:12.156Z,11.03
2019-03-29T07:52:40.564Z,11.18
2019-03-29T07:55:09.225Z,10.43
2019-03-29T07:57:37.625Z,11.20
2019-03-29T08:00:08.821Z,10.60
2019-03-29T08:02:37.302Z,10.30
2019-03-29T08:05:06.415Z,10.98
2019-03-29T08:07:34.821Z,11.20
2019-03-29T08:10:04.347Z,11.73
2019-03-29T08:12:32.985Z,11.78
2019-03-29T08:15:01.514Z,10.93
2019-03-29T08:17:29.973Z,10.88
2019-03-29T08:20:35.859Z,10.68
2019-03-29T08:22:28.796Z,10.05
2019-03-29T08:24:59.167Z,9.73
2019-03-29T08:27:27.307Z,12.43
2019-03-29T08:29:55.696Z,10.48
2019-03-29T08:32:24.105Z,10.28
2019-03-29T08:34:52.505Z,10.55
2019-03-29T08:37:21.233Z,10.25
2019-03-29T08:39:49.698Z,10.38
2019-03-29T08:42:18.703Z,10.45
2019-03-29T08:44:47.253Z,9.85
2019-03-29T08:47:15.656Z,10.08
2019-03-29T08:49:44.071Z,10.68
2019-03-29T08:52:12.538Z,10.30
2019-03-29T08:54:40.929Z,9.68
2019-03-29T08:57:10.881Z,9.75
2019-03-29T08:59:39.399Z,10.13
2019-03-29T09:02:07.868Z,10.28
2019-03-29T09:04:36.587Z,9.35
2019-03-29T09:07:05.278Z,9.75
2019-03-29T09:09:33.996Z,8.50
2019-03-29T09:12:13.915Z,10.00
2019-03-29T09:14:32.593Z,8.98
2019-03-29T09:17:00.977Z,9.55
2019-03-29T09:19:29.366Z,8.80
2019-03-29T09:21:57.771Z,9.85
2019-03-29T09:24:26.149Z,9.40
2019-03-29T09:26:54.544Z,8.50
2019-03-29T09:29:22.971Z,8.73
2019-03-29T09:31:51.361Z,9.13
2019-03-29T09:34:19.758Z,8.00
2019-03-29T09:36:48.150Z,8.50
2019-03-29T09:39:16.534Z,8.43
2019-03-29T09:41:44.937Z,7.80
2019-03-29T09:44:13.640Z,9.20
2019-03-29T09:46:42.324Z,7.80
2019-03-29T09:49:10.714Z,8.40
2019-03-29T09:51:39.091Z,7.72
2019-03-29T09:54:07.557Z,7.72
2019-03-29T09:56:39.110Z,6.97
2019-03-29T09:59:06.056Z,7.30
2019-03-29T10:01:34.528Z,6.97
2019-03-29T10:04:03.013Z,7.25
2019-03-29T10:06:31.407Z,7.78
2019-03-29T10:08:59.797Z,7.35
2019-03-29T10:11:28.184Z,7.55
2019-03-29T10:13:56.576Z,7.37
2019-03-29T10:16:26.036Z,7.20
2019-03-29T10:18:54.528Z,7.17
2019-03-29T10:21:22.912Z,6.85
2019-03-29T10:23:51.309Z,6.20
2019-03-29T10:26:19.921Z,6.28
2019-03-29T10:28:48.316Z,5.85
2019-03-29T10:31:31.057Z,6.20
2019-03-29T10:33:49.092Z,7.15
2019-03-29T10:36:16.920Z,5.87
2019-03-29T10:38:45.313Z,6.00
2019-03-29T10:41:13.719Z,5.28
2019-03-29T10:43:42.099Z,5.58
2019-03-29T10:46:10.728Z,5.87
2019-03-29T10:48:39.121Z,5.97
2019-03-29T10:51:08.562Z,5.40
2019-03-29T10:53:37.070Z,5.60
2019-03-29T10:56:05.449Z,5.60
2019-03-29T10:58:33.856Z,5.67
2019-03-29T11:01:02.644Z,7.28
2019-03-29T11:03:31.048Z,7.53
2019-03-29T11:05:59.424Z,6.85
2019-03-29T11:08:27.890Z,6.35
2019-03-29T11:10:56.294Z,6.47
2019-03-29T11:13:24.687Z,6.28
2019-03-29T11:15:53.076Z,6.87
2019-03-29T11:18:21.476Z,6.80
2019-03-29T11:20:49.860Z,5.78
2019-03-29T11:23:18.264Z,6.03
2019-03-29T11:25:48.572Z,5.95
2019-03-29T11:28:16.773Z,5.85
2019-03-29T11:30:45.168Z,5.37
2019-03-29T11:33:13.648Z,5.70
2019-03-29T11:35:42.033Z,6.25
2019-03-29T11:38:10.452Z,5.33
2019-03-29T11:40:38.840Z,5.10
2019-03-29T11:43:07.236Z,6.22
2019-03-29T11:45:35.631Z,6.90
2019-03-29T11:48:08.861Z,6.05
2019-03-29T11:50:34.617Z,6.87
2019-03-29T11:53:03.038Z,6.12
2019-03-29T11:55:31.408Z,5.95
2019-03-29T11:57:59.805Z,5.55
2019-03-29T12:00:36.052Z,5.20
2019-03-29T12:03:07.289Z,5.40
2019-03-29T12:05:36.349Z,4.95
2019-03-29T12:08:05.517Z,4.85
2019-03-29T12:10:34.740Z,6.28
2019-03-29T12:13:03.139Z,6.03
2019-03-29T12:15:31.527Z,6.03
2019-03-29T12:17:59.934Z,6.33
2019-03-29T12:20:28.635Z,6.37
2019-03-29T12:22:57.316Z,5.85
2019-03-29T12:25:25.696Z,5.80
2019-03-29T12:27:54.088Z,6.53
2019-03-29T12:30:31.129Z,6.10
2019-03-29T12:32:52.606Z,6.30
2019-03-29T12:35:21.016Z,6.83
2019-03-29T12:37:49.413Z,6.05
2019-03-29T12:40:17.844Z,5.78
2019-03-29T12:42:46.242Z,6.40
2019-03-29T12:45:14.897Z,6.40
2019-03-29T12:47:43.292Z,5.97
2019-03-29T12:50:12.013Z,5.83
2019-03-29T12:52:40.416Z,5.70
2019-03-29T12:55:08.943Z,5.50
2019-03-29T12:57:39.170Z,6.53
2019-03-29T13:00:08.617Z,5.80
2019-03-29T13:02:37.009Z,4.70
2019-03-29T13:05:07.147Z,5.03
2019-03-29T13:07:35.525Z,4.90
2019-03-29T13:10:06.833Z,4.87
2019-03-29T13:12:35.237Z,5.83
2019-03-29T13:15:04.798Z,4.92
2019-03-29T13:17:33.193Z,5.70
2019-03-29T13:20:01.663Z,5.05
2019-03-29T13:22:30.166Z,5.45
2019-03-29T13:24:58.569Z,6.05
2019-03-29T13:27:27.025Z,5.97
2019-03-29T13:29:55.445Z,5.72
2019-03-29T13:32:23.812Z,5.47
2019-03-29T13:34:52.217Z,5.12
2019-03-29T13:37:20.598Z,5.60
2019-03-29T13:39:48.988Z,6.17
2019-03-29T13:42:17.373Z,5.85
2019-03-29T13:44:45.774Z,5.33
2019-03-29T13:47:14.150Z,4.53
2019-03-29T13:49:42.548Z,5.50
2019-03-29T13:52:10.933Z,4.95
2019-03-29T13:54:39.326Z,4.87
2019-03-29T13:57:07.720Z,5.20
2019-03-29T13:59:36.116Z,4.20
2019-03-29T14:02:04.496Z,4.28
2019-03-29T14:04:32.892Z,4.55
2019-03-29T14:07:01.273Z,4.72
2019-03-29T14:09:29.668Z,4.10
2019-03-29T14:11:58.067Z,4.60
2019-03-29T14:14:37.592Z,4.65
2019-03-29T14:16:56.568Z,5.28
2019-03-29T14:19:25.902Z,5.35
2019-03-29T14:21:54.536Z,5.33
2019-03-29T14:24:22.919Z,5.45
2019-03-29T14:26:51.306Z,4.90
2019-03-29T14:29:19.691Z,5.62
2019-03-29T14:31:48.072Z,4.47
2019-03-29T14:34:16.471Z,4.45
2019-03-29T14:36:44.856Z,5.30
2019-03-29T14:39:13.256Z,4.72
2019-03-29T14:41:41.636Z,4.97
2019-03-29T14:44:10.035Z,5.33
2019-03-29T14:46:38.738Z,5.03
2019-03-29T14:49:07.132Z,6.08
2019-03-29T14:51:35.512Z,4.97
2019-03-29T14:54:03.905Z,5.70
2019-03-29T14:56:32.283Z,4.87
2019-03-29T14:59:00.692Z,4.25
2019-03-29T15:01:29.062Z,6.10
2019-03-29T15:03:57.463Z,5.58
2019-03-29T15:06:25.831Z,4.72
2019-03-29T15:08:54.643Z,5.15
2019-03-29T15:11:23.127Z,4.92
2019-03-29T15:13:51.528Z,5.35
2019-03-29T15:16:19.905Z,6.00
2019-03-29T15:18:48.303Z,5.20
2019-03-29T15:21:16.679Z,5.37
2019-03-29T15:23:45.072Z,5.95
2019-03-29T15:26:13.461Z,5.03
2019-03-29T15:28:41.865Z,5.80
2019-03-29T15:31:10.235Z,5.85
2019-03-29T15:33:38.623Z,5.40
2019-03-29T15:36:07.255Z,5.85
2019-03-29T15:38:35.657Z,5.83
2019-03-29T15:41:04.104Z,6.20
2019-03-29T15:43:32.492Z,5.47
2019-03-29T15:46:00.878Z,6.17
2019-03-29T15:48:29.678Z,6.28
2019-03-29T15:50:58.071Z,5.50
2019-03-29T15:53:26.457Z,6.25
2019-03-29T15:55:54.877Z,5.72
2019-03-29T15:58:23.239Z,6.53
2019-03-29T16:00:51.879Z,5.75
2019-03-29T16:03:20.280Z,5.92
2019-03-29T16:05:48.714Z,6.25
2019-03-29T16:08:17.138Z,6.70
2019-03-29T16:10:45.537Z,6.60
2019-03-29T16:13:13.915Z,5.95
2019-03-29T16:15:42.308Z,6.65
2019-03-29T16:18:10.736Z,5.97
2019-03-29T16:20:39.438Z,7.67
2019-03-29T16:23:07.816Z,5.83
2019-03-29T16:25:36.212Z,6.17
2019-03-29T16:28:04.597Z,5.90
2019-03-29T16:30:32.995Z,6.12
2019-03-29T16:33:01.640Z,7.03
2019-03-29T16:35:30.036Z,6.50
2019-03-29T16:37:58.419Z,6.67
2019-03-29T16:40:31.006Z,6.22
2019-03-29T16:42:59.569Z,6.87
2019-03-29T16:45:27.959Z,6.85
2019-03-29T16:47:56.636Z,6.42
2019-03-29T16:50:25.027Z,7.12
2019-03-29T16:52:53.525Z,7.00
2019-03-29T16:55:21.912Z,6.78
2019-03-29T16:57:50.312Z,7.28
2019-03-29T17:00:18.764Z,6.95
2019-03-29T17:02:47.532Z,6.10
2019-03-29T17:05:15.937Z,7.50
2019-03-29T17:07:44.341Z,8.23
2019-03-29T17:10:12.957Z,6.30
2019-03-29T17:12:41.352Z,7.00
2019-03-29T17:15:09.986Z,7.22
2019-03-29T17:17:38.737Z,7.45
2019-03-29T17:20:07.862Z,7.30
2019-03-29T17:22:36.690Z,6.45
2019-03-29T17:25:08.650Z,6.17
2019-03-29T17:27:37.036Z,6.05
2019-03-29T17:30:09.635Z,6.97
2019-03-29T17:32:38.012Z,6.75
2019-03-29T17:35:07.160Z,6.85
2019-03-29T17:37:35.544Z,7.53
2019-03-29T17:40:08.206Z,7.42
2019-03-29T17:42:36.659Z,8.08
2019-03-29T17:45:06.965Z,6.95
2019-03-29T17:47:35.353Z,6.60
2019-03-29T17:50:05.383Z,6.92
2019-03-29T17:52:33.772Z,6.58
2019-03-29T17:55:02.255Z,7.53
2019-03-29T17:57:30.651Z,6.97
2019-03-29T17:59:59.044Z,8.93
2019-03-29T18:02:27.432Z,7.28
2019-03-29T18:04:55.844Z,8.50
2019-03-29T18:07:24.228Z,8.58
2019-03-29T18:09:52.623Z,8.83
2019-03-29T18:12:21.016Z,9.55
2019-03-29T18:14:49.414Z,8.55
2019-03-29T18:17:17.803Z,6.42
2019-03-29T18:19:46.468Z,7.62
2019-03-29T18:22:14.861Z,7.28
2019-03-29T18:24:43.259Z,7.40
2019-03-29T18:27:11.635Z,7.17
2019-03-29T18:29:40.032Z,7.35
2019-03-29T18:32:08.889Z,7.15
2019-03-29T18:34:40.003Z,7.40
2019-03-29T18:37:08.236Z,9.15
2019-03-29T18:39:37.296Z,7.78
2019-03-29T18:42:05.683Z,7.05
2019-03-29T18:44:34.264Z,7.17
2019-03-29T18:47:03.472Z,8.98
2019-03-29T18:49:31.862Z,8.60
2019-03-29T18:52:00.252Z,8.73
2019-03-29T18:54:28.657Z,8.78
2019-03-29T18:56:57.044Z,9.53
2019-03-29T18:59:25.425Z,8.48
2019-03-29T19:01:53.820Z,8.55
2019-03-29T19:04:22.196Z,6.58
2019-03-29T19:06:50.604Z,7.33
2019-03-29T19:09:19.057Z,8.53
2019-03-29T19:11:47.461Z,7.55
2019-03-29T19:14:16.166Z,8.03
2019-03-29T19:16:58.070Z,8.88
2019-03-29T19:19:14.679Z,9.15
2019-03-29T19:21:43.090Z,8.48
2019-03-29T19:24:11.471Z,9.68
2019-03-29T19:26:40.114Z,9.08
2019-03-29T19:29:08.498Z,9.48
2019-03-29T19:31:37.433Z,8.85
2019-03-29T19:34:06.060Z,8.03
2019-03-29T19:36:34.474Z,8.65
2019-03-29T19:39:04.436Z,8.58
2019-03-29T19:41:32.854Z,7.58
2019-03-29T19:44:01.217Z,7.97
2019-03-29T19:46:29.616Z,7.62
2019-03-29T19:48:58.004Z,8.05
2019-03-29T19:51:26.678Z,8.60
2019-03-29T19:54:06.735Z,8.78
2019-03-29T19:56:25.480Z,9.65
2019-03-29T19:58:53.943Z,8.50
2019-03-29T20:01:22.352Z,8.73
2019-03-29T20:03:50.732Z,8.80
2019-03-29T20:06:19.127Z,9.53
2019-03-29T20:08:47.791Z,8.10
2019-03-29T20:11:16.210Z,9.18
2019-03-29T20:13:44.586Z,9.93
2019-03-29T20:16:12.984Z,8.90
2019-03-29T20:18:41.363Z,9.00
2019-03-29T20:21:09.765Z,9.25
2019-03-29T20:23:38.154Z,9.35
2019-03-29T20:26:08.342Z,9.45
2019-03-29T20:28:37.091Z,8.20
2019-03-29T20:31:05.524Z,7.87
2019-03-29T20:33:33.904Z,8.23
2019-03-29T20:36:02.307Z,9.63
2019-03-29T20:38:30.751Z,9.00
2019-03-29T20:40:59.158Z,8.63
2019-03-29T20:43:27.544Z,10.13
2019-03-29T20:45:55.944Z,9.73
2019-03-29T20:48:24.339Z,9.95
2019-03-29T20:50:52.732Z,10.32
2019-03-29T20:53:21.123Z,10.40
2019-03-29T20:55:49.527Z,9.25
2019-03-29T20:58:17.912Z,9.33
2019-03-29T21:00:46.376Z,9.23
2019-03-29T21:03:14.762Z,8.78
2019-03-29T21:05:43.377Z,8.58
2019-03-29T21:08:12.267Z,9.38
2019-03-29T21:10:54.483Z,9.25
2019-03-29T21:13:11.108Z,9.63
2019-03-29T21:15:39.500Z,8.78
2019-03-29T21:18:07.967Z,9.13
2019-03-29T21:20:36.348Z,9.35
2019-03-29T21:23:04.982Z,8.70
2019-03-29T21:25:33.357Z,9.33
2019-03-29T21:28:01.761Z,9.50
2019-03-29T21:30:30.205Z,8.93
2019-03-29T21:32:58.736Z,10.23
2019-03-29T21:35:27.178Z,9.53
2019-03-29T21:37:55.577Z,9.73
2019-03-29T21:40:23.972Z,9.00
2019-03-29T21:42:52.407Z,9.20
2019-03-29T21:45:28.515Z,8.95
2019-03-29T21:48:01.994Z,9.55
2019-03-29T21:50:21.145Z,9.70
2019-03-29T21:52:49.553Z,10.65
2019-03-29T21:55:17.940Z,9.63
2019-03-29T21:57:46.425Z,9.90
2019-03-29T22:00:15.449Z,10.00
2019-03-29T22:02:43.840Z,9.83
2019-03-29T22:05:12.305Z,9.98
2019-03-29T22:07:40.710Z,9.70
2019-03-29T22:10:10.736Z,9.70
2019-03-29T22:12:42.592Z,8.88
2019-03-29T22:15:09.888Z,9.80
2019-03-29T22:17:38.458Z,9.93
2019-03-29T22:20:08.751Z,10.05
2019-03-29T22:22:37.514Z,9.68
2019-03-29T22:25:07.903Z,9.88
2019-03-29T22:27:36.301Z,10.95
2019-03-29T22:30:07.768Z,10.80
2019-03-29T22:32:36.169Z,10.28
2019-03-29T22:35:06.599Z,10.60
2019-03-29T22:37:35.009Z,10.58
2019-03-29T22:40:05.412Z,10.10
2019-03-29T22:42:33.804Z,10.25
2019-03-29T22:45:02.219Z,10.08
2019-03-29T22:47:30.598Z,9.83
2019-03-29T22:49:58.991Z,10.68
2019-03-29T22:52:27.392Z,9.78
2019-03-29T22:54:55.776Z,10.63
2019-03-29T22:57:24.483Z,9.85
2019-03-29T22:59:52.871Z,10.53
2019-03-29T23:02:21.274Z,11.68
2019-03-29T23:04:49.672Z,10.48
2019-03-29T23:07:18.055Z,10.05
2019-03-29T23:09:46.459Z,10.95
2019-03-29T23:12:14.844Z,9.83
2019-03-29T23:14:43.243Z,9.85
2019-03-29T23:17:11.640Z,10.23
2019-03-29T23:19:40.045Z,10.35
2019-03-29T23:22:08.435Z,10.90
2019-03-29T23:24:37.073Z,11.83
2019-03-29T23:27:05.541Z,11.63
2019-03-29T23:29:33.958Z,10.68
2019-03-29T23:32:02.324Z,11.80
2019-03-29T23:34:30.753Z,10.45
2019-03-29T23:36:59.137Z,11.43
2019-03-29T23:39:27.535Z,10.15
2019-03-29T23:41:55.919Z,10.75
2019-03-29T23:44:24.317Z,8.63
2019-03-29T23:46:52.706Z,9.50
2019-03-29T23:49:21.619Z,9.45
2019-03-29T23:51:50.174Z,9.73
2019-03-29T23:54:18.578Z,9.20
2019-03-29T23:56:47.185Z,8.88
2019-03-29T23:59:15.932Z,10.00
